sensor_id;sensor_type;location;lat;lon;timestamp;P1;durP1;ratioP1;P2;durP2;ratioP2
23228;SDS011;11783;50.350;6.576;2024-03-02T00:00:18;3.72;;;1.17;;
23228;SDS011;11783;50.350;6.576;2024-03-02T00:02:47;3.17;;;1.42;;
23228;SDS011;11783;50.350;6.576;2024-03-02T00:05:22;2.90;;;1.00;;
23228;SDS011;11783;50.350;6.576;2024-03-02T00:07:54;3.28;;;1.20;;
23228;SDS011;11783;50.350;6.576;2024-03-02T00:10:34;4.47;;;1.10;;
23228;SDS011;11783;50.350;6.576;2024-03-02T00:13:04;4.72;;;1.20;;
23228;SDS011;11783;50.350;6.576;2024-03-02T00:17:55;3.92;;;0.88;;
23228;SDS011;11783;50.350;6.576;2024-03-02T00:20:21;3.85;;;1.00;;
23228;SDS011;11783;50.350;6.576;2024-03-02T00:22:48;1.80;;;0.88;;
23228;SDS011;11783;50.350;6.576;2024-03-02T00:25:13;3.28;;;0.88;;
23228;SDS011;11783;50.350;6.576;2024-03-02T00:27:39;2.42;;;1.00;;
23228;SDS011;11783;50.350;6.576;2024-03-02T00:33:09;3.40;;;0.90;;
23228;SDS011;11783;50.350;6.576;2024-03-02T00:35:35;1.83;;;0.90;;
23228;SDS011;11783;50.350;6.576;2024-03-02T00:38:04;5.03;;;1.05;;
23228;SDS011;11783;50.350;6.576;2024-03-02T00:40:31;2.37;;;1.03;;
23228;SDS011;11783;50.350;6.576;2024-03-02T00:42:57;2.03;;;0.90;;
23228;SDS011;11783;50.350;6.576;2024-03-02T00:45:22;3.28;;;0.98;;
23228;SDS011;11783;50.350;6.576;2024-03-02T00:47:49;3.50;;;1.23;;
23228;SDS011;11783;50.350;6.576;2024-03-02T00:50:15;2.75;;;0.93;;
23228;SDS011;11783;50.350;6.576;2024-03-02T00:52:41;3.33;;;0.90;;
23228;SDS011;11783;50.350;6.576;2024-03-02T00:55:07;4.32;;;1.00;;
23228;SDS011;11783;50.350;6.576;2024-03-02T00:57:33;4.45;;;1.20;;
23228;SDS011;11783;50.350;6.576;2024-03-02T01:00:02;5.65;;;1.13;;
23228;SDS011;11783;50.350;6.576;2024-03-02T01:02:29;3.95;;;1.08;;
23228;SDS011;11783;50.350;6.576;2024-03-02T01:04:55;2.03;;;0.75;;
23228;SDS011;11783;50.350;6.576;2024-03-02T01:07:20;2.10;;;0.80;;
23228;SDS011;11783;50.350;6.576;2024-03-02T01:09:45;4.03;;;1.00;;
23228;SDS011;11783;50.350;6.576;2024-03-02T01:12:11;3.08;;;1.02;;
23228;SDS011;11783;50.350;6.576;2024-03-02T01:14:36;2.10;;;0.82;;
23228;SDS011;11783;50.350;6.576;2024-03-02T01:17:01;4.25;;;1.13;;
23228;SDS011;11783;50.350;6.576;2024-03-02T01:19:29;4.53;;;1.10;;
23228;SDS011;11783;50.350;6.576;2024-03-02T01:21:55;2.65;;;0.90;;
23228;SDS011;11783;50.350;6.576;2024-03-02T01:24:20;2.42;;;0.95;;
23228;SDS011;11783;50.350;6.576;2024-03-02T01:26:45;5.10;;;1.30;;
23228;SDS011;11783;50.350;6.576;2024-03-02T01:29:11;2.25;;;0.98;;
23228;SDS011;11783;50.350;6.576;2024-03-02T01:31:36;4.30;;;0.98;;
23228;SDS011;11783;50.350;6.576;2024-03-02T01:34:01;3.20;;;1.00;;
23228;SDS011;11783;50.350;6.576;2024-03-02T01:36:27;3.97;;;0.80;;
23228;SDS011;11783;50.350;6.576;2024-03-02T01:38:52;3.97;;;1.10;;
23228;SDS011;11783;50.350;6.576;2024-03-02T01:41:18;5.32;;;1.00;;
23228;SDS011;11783;50.350;6.576;2024-03-02T01:43:43;2.28;;;1.02;;
23228;SDS011;11783;50.350;6.576;2024-03-02T01:46:11;2.80;;;0.90;;
23228;SDS011;11783;50.350;6.576;2024-03-02T01:48:37;3.53;;;0.90;;
23228;SDS011;11783;50.350;6.576;2024-03-02T01:51:02;2.55;;;1.20;;
23228;SDS011;11783;50.350;6.576;2024-03-02T01:53:29;4.38;;;1.15;;
23228;SDS011;11783;50.350;6.576;2024-03-02T01:55:54;4.00;;;1.55;;
23228;SDS011;11783;50.350;6.576;2024-03-02T01:58:19;2.58;;;0.90;;
23228;SDS011;11783;50.350;6.576;2024-03-02T02:00:45;3.92;;;1.00;;
23228;SDS011;11783;50.350;6.576;2024-03-02T02:03:10;5.30;;;1.35;;
23228;SDS011;11783;50.350;6.576;2024-03-02T02:05:36;3.63;;;1.05;;
23228;SDS011;11783;50.350;6.576;2024-03-02T02:08:01;3.28;;;1.00;;
23228;SDS011;11783;50.350;6.576;2024-03-02T02:10:27;4.90;;;1.10;;
23228;SDS011;11783;50.350;6.576;2024-03-02T02:12:52;3.45;;;1.05;;
23228;SDS011;11783;50.350;6.576;2024-03-02T02:15:24;2.50;;;1.00;;
23228;SDS011;11783;50.350;6.576;2024-03-02T02:17:50;4.43;;;1.10;;
23228;SDS011;11783;50.350;6.576;2024-03-02T02:20:15;4.18;;;1.00;;
23228;SDS011;11783;50.350;6.576;2024-03-02T02:22:52;3.08;;;1.08;;
23228;SDS011;11783;50.350;6.576;2024-03-02T02:25:24;3.00;;;0.90;;
23228;SDS011;11783;50.350;6.576;2024-03-02T02:27:49;2.97;;;1.20;;
23228;SDS011;11783;50.350;6.576;2024-03-02T02:30:23;3.83;;;1.15;;
23228;SDS011;11783;50.350;6.576;2024-03-02T02:32:50;3.80;;;1.10;;
23228;SDS011;11783;50.350;6.576;2024-03-02T02:35:15;5.32;;;1.30;;
23228;SDS011;11783;50.350;6.576;2024-03-02T02:37:41;4.47;;;1.05;;
23228;SDS011;11783;50.350;6.576;2024-03-02T02:40:07;2.72;;;0.80;;
23228;SDS011;11783;50.350;6.576;2024-03-02T02:42:34;4.55;;;1.27;;
23228;SDS011;11783;50.350;6.576;2024-03-02T02:44:59;5.97;;;1.35;;
23228;SDS011;11783;50.350;6.576;2024-03-02T02:47:25;4.97;;;1.20;;
23228;SDS011;11783;50.350;6.576;2024-03-02T02:49:50;3.58;;;1.30;;
23228;SDS011;11783;50.350;6.576;2024-03-02T02:52:16;2.83;;;1.00;;
23228;SDS011;11783;50.350;6.576;2024-03-02T02:54:41;3.47;;;1.20;;
23228;SDS011;11783;50.350;6.576;2024-03-02T02:57:07;4.53;;;1.20;;
23228;SDS011;11783;50.350;6.576;2024-03-02T02:59:32;3.75;;;1.52;;
23228;SDS011;11783;50.350;6.576;2024-03-02T03:01:57;3.42;;;1.13;;
23228;SDS011;11783;50.350;6.576;2024-03-02T03:04:23;4.45;;;1.20;;
23228;SDS011;11783;50.350;6.576;2024-03-02T03:06:48;4.55;;;1.63;;
23228;SDS011;11783;50.350;6.576;2024-03-02T03:09:13;5.30;;;1.42;;
23228;SDS011;11783;50.350;6.576;2024-03-02T03:11:39;4.07;;;1.40;;
23228;SDS011;11783;50.350;6.576;2024-03-02T03:14:04;4.35;;;1.50;;
23228;SDS011;11783;50.350;6.576;2024-03-02T03:16:30;4.35;;;1.60;;
23228;SDS011;11783;50.350;6.576;2024-03-02T03:18:55;4.45;;;1.80;;
23228;SDS011;11783;50.350;6.576;2024-03-02T03:21:21;4.38;;;1.55;;
23228;SDS011;11783;50.350;6.576;2024-03-02T03:23:46;6.15;;;2.13;;
23228;SDS011;11783;50.350;6.576;2024-03-02T03:26:11;5.38;;;1.80;;
23228;SDS011;11783;50.350;6.576;2024-03-02T03:28:37;6.05;;;1.50;;
23228;SDS011;11783;50.350;6.576;2024-03-02T03:31:02;3.60;;;1.60;;
23228;SDS011;11783;50.350;6.576;2024-03-02T03:33:28;3.65;;;1.50;;
23228;SDS011;11783;50.350;6.576;2024-03-02T03:35:53;5.47;;;1.60;;
23228;SDS011;11783;50.350;6.576;2024-03-02T03:38:19;4.32;;;1.70;;
23228;SDS011;11783;50.350;6.576;2024-03-02T03:40:44;7.95;;;1.80;;
23228;SDS011;11783;50.350;6.576;2024-03-02T03:43:10;4.80;;;1.80;;
23228;SDS011;11783;50.350;6.576;2024-03-02T03:45:35;2.92;;;1.55;;
23228;SDS011;11783;50.350;6.576;2024-03-02T03:48:02;3.78;;;1.65;;
23228;SDS011;11783;50.350;6.576;2024-03-02T03:50:27;5.53;;;2.08;;
23228;SDS011;11783;50.350;6.576;2024-03-02T03:52:53;9.40;;;2.00;;
23228;SDS011;11783;50.350;6.576;2024-03-02T03:55:18;8.45;;;2.03;;
23228;SDS011;11783;50.350;6.576;2024-03-02T03:57:44;5.25;;;1.77;;
23228;SDS011;11783;50.350;6.576;2024-03-02T04:00:09;6.15;;;1.88;;
23228;SDS011;11783;50.350;6.576;2024-03-02T04:02:35;4.15;;;1.98;;
23228;SDS011;11783;50.350;6.576;2024-03-02T04:05:01;4.00;;;1.80;;
23228;SDS011;11783;50.350;6.576;2024-03-02T04:07:29;6.53;;;2.05;;
23228;SDS011;11783;50.350;6.576;2024-03-02T04:09:55;4.47;;;1.98;;
23228;SDS011;11783;50.350;6.576;2024-03-02T04:12:21;4.40;;;1.95;;
23228;SDS011;11783;50.350;6.576;2024-03-02T04:14:47;7.00;;;2.20;;
23228;SDS011;11783;50.350;6.576;2024-03-02T04:17:12;7.47;;;2.20;;
23228;SDS011;11783;50.350;6.576;2024-03-02T04:19:38;5.93;;;2.10;;
23228;SDS011;11783;50.350;6.576;2024-03-02T04:22:03;4.90;;;2.17;;
23228;SDS011;11783;50.350;6.576;2024-03-02T04:24:29;3.97;;;2.00;;
23228;SDS011;11783;50.350;6.576;2024-03-02T04:26:55;4.85;;;1.80;;
23228;SDS011;11783;50.350;6.576;2024-03-02T04:29:20;6.60;;;2.15;;
23228;SDS011;11783;50.350;6.576;2024-03-02T04:31:46;6.95;;;2.10;;
23228;SDS011;11783;50.350;6.576;2024-03-02T04:34:11;6.07;;;2.50;;
23228;SDS011;11783;50.350;6.576;2024-03-02T04:36:36;6.50;;;2.28;;
23228;SDS011;11783;50.350;6.576;2024-03-02T04:39:02;4.30;;;2.17;;
23228;SDS011;11783;50.350;6.576;2024-03-02T04:41:27;4.13;;;1.98;;
23228;SDS011;11783;50.350;6.576;2024-03-02T04:43:53;8.48;;;2.38;;
23228;SDS011;11783;50.350;6.576;2024-03-02T04:46:18;6.80;;;2.38;;
23228;SDS011;11783;50.350;6.576;2024-03-02T04:48:43;4.63;;;2.15;;
23228;SDS011;11783;50.350;6.576;2024-03-02T04:51:09;3.97;;;1.90;;
23228;SDS011;11783;50.350;6.576;2024-03-02T04:53:34;5.63;;;2.40;;
23228;SDS011;11783;50.350;6.576;2024-03-02T04:56:00;6.95;;;2.47;;
23228;SDS011;11783;50.350;6.576;2024-03-02T04:59:01;4.73;;;1.90;;
23228;SDS011;11783;50.350;6.576;2024-03-02T05:01:26;5.53;;;2.50;;
23228;SDS011;11783;50.350;6.576;2024-03-02T05:03:51;5.30;;;2.17;;
23228;SDS011;11783;50.350;6.576;2024-03-02T05:06:17;5.28;;;2.40;;
23228;SDS011;11783;50.350;6.576;2024-03-02T05:08:42;4.53;;;2.58;;
23228;SDS011;11783;50.350;6.576;2024-03-02T05:11:09;4.45;;;2.30;;
23228;SDS011;11783;50.350;6.576;2024-03-02T05:13:53;5.35;;;2.40;;
23228;SDS011;11783;50.350;6.576;2024-03-02T05:16:19;9.45;;;2.40;;
23228;SDS011;11783;50.350;6.576;2024-03-02T05:18:44;6.43;;;3.08;;
23228;SDS011;11783;50.350;6.576;2024-03-02T05:21:10;5.72;;;1.92;;
23228;SDS011;11783;50.350;6.576;2024-03-02T05:23:36;5.22;;;2.20;;
23228;SDS011;11783;50.350;6.576;2024-03-02T05:26:02;7.80;;;2.70;;
23228;SDS011;11783;50.350;6.576;2024-03-02T05:28:27;5.90;;;2.42;;
23228;SDS011;11783;50.350;6.576;2024-03-02T05:30:53;5.60;;;2.45;;
23228;SDS011;11783;50.350;6.576;2024-03-02T05:33:18;7.68;;;2.50;;
23228;SDS011;11783;50.350;6.576;2024-03-02T05:35:47;3.97;;;1.95;;
23228;SDS011;11783;50.350;6.576;2024-03-02T05:38:15;5.13;;;2.50;;
23228;SDS011;11783;50.350;6.576;2024-03-02T05:40:40;6.95;;;2.17;;
23228;SDS011;11783;50.350;6.576;2024-03-02T05:43:05;4.32;;;2.17;;
23228;SDS011;11783;50.350;6.576;2024-03-02T05:45:31;9.32;;;2.95;;
23228;SDS011;11783;50.350;6.576;2024-03-02T05:47:56;5.03;;;2.60;;
23228;SDS011;11783;50.350;6.576;2024-03-02T05:50:22;5.65;;;2.63;;
23228;SDS011;11783;50.350;6.576;2024-03-02T05:52:47;7.28;;;2.70;;
23228;SDS011;11783;50.350;6.576;2024-03-02T05:55:13;9.13;;;2.72;;
23228;SDS011;11783;50.350;6.576;2024-03-02T05:57:38;6.90;;;3.08;;
23228;SDS011;11783;50.350;6.576;2024-03-02T06:02:35;8.88;;;3.10;;
23228;SDS011;11783;50.350;6.576;2024-03-02T06:05:04;5.50;;;2.85;;
23228;SDS011;11783;50.350;6.576;2024-03-02T06:07:30;6.47;;;3.03;;
23228;SDS011;11783;50.350;6.576;2024-03-02T06:09:55;6.05;;;3.10;;
23228;SDS011;11783;50.350;6.576;2024-03-02T06:12:20;5.97;;;2.67;;
23228;SDS011;11783;50.350;6.576;2024-03-02T06:14:46;5.07;;;2.65;;
23228;SDS011;11783;50.350;6.576;2024-03-02T06:17:11;7.10;;;3.10;;
23228;SDS011;11783;50.350;6.576;2024-03-02T06:19:36;5.35;;;2.97;;
23228;SDS011;11783;50.350;6.576;2024-03-02T06:22:02;6.28;;;3.30;;
23228;SDS011;11783;50.350;6.576;2024-03-02T06:24:27;7.00;;;3.45;;
23228;SDS011;11783;50.350;6.576;2024-03-02T06:26:53;5.25;;;2.70;;
23228;SDS011;11783;50.350;6.576;2024-03-02T06:29:18;9.98;;;2.90;;
23228;SDS011;11783;50.350;6.576;2024-03-02T06:31:43;5.07;;;2.70;;
23228;SDS011;11783;50.350;6.576;2024-03-02T06:34:09;5.60;;;3.10;;
23228;SDS011;11783;50.350;6.576;2024-03-02T06:36:34;5.93;;;2.95;;
23228;SDS011;11783;50.350;6.576;2024-03-02T06:39:00;4.70;;;2.65;;
23228;SDS011;11783;50.350;6.576;2024-03-02T06:41:25;4.00;;;2.60;;
23228;SDS011;11783;50.350;6.576;2024-03-02T06:43:51;6.22;;;2.42;;
23228;SDS011;11783;50.350;6.576;2024-03-02T06:46:24;6.70;;;2.80;;
23228;SDS011;11783;50.350;6.576;2024-03-02T06:48:50;5.80;;;2.90;;
23228;SDS011;11783;50.350;6.576;2024-03-02T06:51:15;4.95;;;2.15;;
23228;SDS011;11783;50.350;6.576;2024-03-02T06:53:40;7.15;;;2.20;;
23228;SDS011;11783;50.350;6.576;2024-03-02T06:56:06;6.65;;;2.30;;
23228;SDS011;11783;50.350;6.576;2024-03-02T06:58:33;7.28;;;1.95;;
23228;SDS011;11783;50.350;6.576;2024-03-02T07:00:58;5.55;;;1.88;;
23228;SDS011;11783;50.350;6.576;2024-03-02T07:03:25;4.05;;;1.83;;
23228;SDS011;11783;50.350;6.576;2024-03-02T07:05:51;4.22;;;2.05;;
23228;SDS011;11783;50.350;6.576;2024-03-02T07:08:16;3.55;;;1.58;;
23228;SDS011;11783;50.350;6.576;2024-03-02T07:10:41;5.68;;;1.92;;
23228;SDS011;11783;50.350;6.576;2024-03-02T07:13:07;4.68;;;1.88;;
23228;SDS011;11783;50.350;6.576;2024-03-02T07:15:32;4.40;;;1.65;;
23228;SDS011;11783;50.350;6.576;2024-03-02T07:18:16;4.82;;;1.75;;
23228;SDS011;11783;50.350;6.576;2024-03-02T07:20:42;4.47;;;1.85;;
23228;SDS011;11783;50.350;6.576;2024-03-02T07:23:07;4.18;;;1.60;;
23228;SDS011;11783;50.350;6.576;2024-03-02T07:25:34;4.38;;;1.77;;
23228;SDS011;11783;50.350;6.576;2024-03-02T07:27:59;3.33;;;1.73;;
23228;SDS011;11783;50.350;6.576;2024-03-02T07:30:25;3.08;;;1.67;;
23228;SDS011;11783;50.350;6.576;2024-03-02T07:32:50;3.88;;;1.55;;
23228;SDS011;11783;50.350;6.576;2024-03-02T07:35:16;3.70;;;1.50;;
23228;SDS011;11783;50.350;6.576;2024-03-02T07:37:41;3.28;;;1.60;;
23228;SDS011;11783;50.350;6.576;2024-03-02T07:40:07;6.07;;;1.75;;
23228;SDS011;11783;50.350;6.576;2024-03-02T07:42:40;5.00;;;1.50;;
23228;SDS011;11783;50.350;6.576;2024-03-02T07:45:05;2.83;;;1.38;;
23228;SDS011;11783;50.350;6.576;2024-03-02T07:47:32;4.78;;;1.67;;
23228;SDS011;11783;50.350;6.576;2024-03-02T07:49:58;3.33;;;1.50;;
23228;SDS011;11783;50.350;6.576;2024-03-02T07:52:24;6.13;;;1.60;;
23228;SDS011;11783;50.350;6.576;2024-03-02T07:54:49;3.53;;;1.40;;
23228;SDS011;11783;50.350;6.576;2024-03-02T07:57:14;3.20;;;1.33;;
23228;SDS011;11783;50.350;6.576;2024-03-02T07:59:40;5.82;;;1.30;;
23228;SDS011;11783;50.350;6.576;2024-03-02T08:02:05;3.70;;;1.20;;
23228;SDS011;11783;50.350;6.576;2024-03-02T08:04:32;2.83;;;1.10;;
23228;SDS011;11783;50.350;6.576;2024-03-02T08:06:57;2.65;;;1.17;;
23228;SDS011;11783;50.350;6.576;2024-03-02T08:09:23;3.97;;;1.30;;
23228;SDS011;11783;50.350;6.576;2024-03-02T08:11:48;2.35;;;1.10;;
23228;SDS011;11783;50.350;6.576;2024-03-02T08:14:14;7.93;;;1.10;;
23228;SDS011;11783;50.350;6.576;2024-03-02T08:16:39;3.13;;;1.10;;
23228;SDS011;11783;50.350;6.576;2024-03-02T08:19:05;4.32;;;1.13;;
23228;SDS011;11783;50.350;6.576;2024-03-02T08:21:30;1.83;;;0.90;;
23228;SDS011;11783;50.350;6.576;2024-03-02T08:23:57;3.00;;;0.80;;
23228;SDS011;11783;50.350;6.576;2024-03-02T08:26:23;4.00;;;0.88;;
23228;SDS011;11783;50.350;6.576;2024-03-02T08:28:48;3.10;;;0.95;;
23228;SDS011;11783;50.350;6.576;2024-03-02T08:31:14;4.00;;;0.90;;
23228;SDS011;11783;50.350;6.576;2024-03-02T08:33:39;3.15;;;0.80;;
23228;SDS011;11783;50.350;6.576;2024-03-02T08:36:05;1.58;;;0.70;;
23228;SDS011;11783;50.350;6.576;2024-03-02T08:38:31;4.20;;;0.95;;
23228;SDS011;11783;50.350;6.576;2024-03-02T08:40:57;4.25;;;0.80;;
23228;SDS011;11783;50.350;6.576;2024-03-02T08:43:22;2.22;;;1.10;;
23228;SDS011;11783;50.350;6.576;2024-03-02T08:45:48;2.47;;;0.90;;
23228;SDS011;11783;50.350;6.576;2024-03-02T08:48:13;6.35;;;1.10;;
23228;SDS011;11783;50.350;6.576;2024-03-02T08:50:40;2.58;;;0.80;;
23228;SDS011;11783;50.350;6.576;2024-03-02T08:53:05;5.35;;;0.80;;
23228;SDS011;11783;50.350;6.576;2024-03-02T08:55:31;3.97;;;0.93;;
23228;SDS011;11783;50.350;6.576;2024-03-02T08:57:56;2.63;;;0.80;;
23228;SDS011;11783;50.350;6.576;2024-03-02T09:00:22;5.50;;;1.23;;
23228;SDS011;11783;50.350;6.576;2024-03-02T09:02:48;2.80;;;0.98;;
23228;SDS011;11783;50.350;6.576;2024-03-02T09:05:14;1.90;;;0.80;;
23228;SDS011;11783;50.350;6.576;2024-03-02T09:07:40;4.18;;;1.08;;
23228;SDS011;11783;50.350;6.576;2024-03-02T09:10:06;2.17;;;0.70;;
23228;SDS011;11783;50.350;6.576;2024-03-02T09:12:32;2.63;;;1.00;;
23228;SDS011;11783;50.350;6.576;2024-03-02T09:14:58;6.65;;;1.50;;
23228;SDS011;11783;50.350;6.576;2024-03-02T09:17:24;3.45;;;1.00;;
23228;SDS011;11783;50.350;6.576;2024-03-02T09:19:50;5.95;;;1.02;;
23228;SDS011;11783;50.350;6.576;2024-03-02T09:22:18;2.72;;;0.88;;
23228;SDS011;11783;50.350;6.576;2024-03-02T09:24:43;3.35;;;0.90;;
23228;SDS011;11783;50.350;6.576;2024-03-02T09:27:09;4.75;;;1.10;;
23228;SDS011;11783;50.350;6.576;2024-03-02T09:29:34;4.78;;;1.10;;
23228;SDS011;11783;50.350;6.576;2024-03-02T09:31:59;5.05;;;0.95;;
23228;SDS011;11783;50.350;6.576;2024-03-02T09:34:25;4.38;;;0.80;;
23228;SDS011;11783;50.350;6.576;2024-03-02T09:36:51;5.07;;;1.00;;
23228;SDS011;11783;50.350;6.576;2024-03-02T09:39:16;4.90;;;1.05;;
23228;SDS011;11783;50.350;6.576;2024-03-02T09:41:43;5.45;;;1.25;;
23228;SDS011;11783;50.350;6.576;2024-03-02T09:44:09;3.05;;;1.10;;
23228;SDS011;11783;50.350;6.576;2024-03-02T09:46:34;2.90;;;0.80;;
23228;SDS011;11783;50.350;6.576;2024-03-02T09:49:01;2.13;;;0.77;;
23228;SDS011;11783;50.350;6.576;2024-03-02T09:51:27;3.05;;;1.10;;
23228;SDS011;11783;50.350;6.576;2024-03-02T09:53:53;3.42;;;0.90;;
23228;SDS011;11783;50.350;6.576;2024-03-02T09:56:23;4.20;;;0.80;;
23228;SDS011;11783;50.350;6.576;2024-03-02T09:58:48;5.07;;;0.98;;
23228;SDS011;11783;50.350;6.576;2024-03-02T10:01:14;1.80;;;0.90;;
23228;SDS011;11783;50.350;6.576;2024-03-02T10:03:39;2.88;;;1.08;;
23228;SDS011;11783;50.350;6.576;2024-03-02T10:08:46;3.95;;;1.20;;
23228;SDS011;11783;50.350;6.576;2024-03-02T10:11:32;4.85;;;0.98;;
23228;SDS011;11783;50.350;6.576;2024-03-02T10:14:13;2.63;;;1.00;;
23228;SDS011;11783;50.350;6.576;2024-03-02T10:16:39;3.70;;;1.10;;
23228;SDS011;11783;50.350;6.576;2024-03-02T10:21:51;4.25;;;1.20;;
23228;SDS011;11783;50.350;6.576;2024-03-02T10:24:18;5.65;;;1.20;;
23228;SDS011;11783;50.350;6.576;2024-03-02T10:26:44;2.72;;;0.80;;
23228;SDS011;11783;50.350;6.576;2024-03-02T10:29:10;4.50;;;1.40;;
23228;SDS011;11783;50.350;6.576;2024-03-02T10:31:40;2.35;;;0.98;;
23228;SDS011;11783;50.350;6.576;2024-03-02T10:34:06;1.58;;;0.90;;
23228;SDS011;11783;50.350;6.576;2024-03-02T10:36:36;3.50;;;1.10;;
23228;SDS011;11783;50.350;6.576;2024-03-02T10:39:05;3.75;;;1.15;;
23228;SDS011;11783;50.350;6.576;2024-03-02T10:41:35;3.97;;;1.15;;
23228;SDS011;11783;50.350;6.576;2024-03-02T10:44:03;2.07;;;0.67;;
23228;SDS011;11783;50.350;6.576;2024-03-02T10:46:30;2.33;;;0.80;;
23228;SDS011;11783;50.350;6.576;2024-03-02T10:48:57;4.55;;;1.13;;
23228;SDS011;11783;50.350;6.576;2024-03-02T10:51:24;2.45;;;0.88;;
23228;SDS011;11783;50.350;6.576;2024-03-02T10:53:51;2.65;;;0.73;;
23228;SDS011;11783;50.350;6.576;2024-03-02T10:56:21;3.03;;;0.90;;
23228;SDS011;11783;50.350;6.576;2024-03-02T10:58:55;2.75;;;0.93;;
23228;SDS011;11783;50.350;6.576;2024-03-02T11:01:36;2.58;;;1.00;;
23228;SDS011;11783;50.350;6.576;2024-03-02T11:04:04;4.90;;;0.95;;
23228;SDS011;11783;50.350;6.576;2024-03-02T11:06:33;2.33;;;0.80;;
23228;SDS011;11783;50.350;6.576;2024-03-02T11:09:05;2.37;;;0.80;;
23228;SDS011;11783;50.350;6.576;2024-03-02T11:11:36;5.03;;;1.08;;
23228;SDS011;11783;50.350;6.576;2024-03-02T11:14:06;2.70;;;0.88;;
23228;SDS011;11783;50.350;6.576;2024-03-02T11:16:37;5.22;;;1.10;;
23228;SDS011;11783;50.350;6.576;2024-03-02T11:19:04;2.83;;;0.85;;
23228;SDS011;11783;50.350;6.576;2024-03-02T11:21:32;2.28;;;0.80;;
23228;SDS011;11783;50.350;6.576;2024-03-02T11:27:02;3.83;;;0.80;;
23228;SDS011;11783;50.350;6.576;2024-03-02T11:32:05;2.50;;;0.63;;
23228;SDS011;11783;50.350;6.576;2024-03-02T11:34:44;2.58;;;0.77;;
23228;SDS011;11783;50.350;6.576;2024-03-02T11:37:15;2.42;;;0.73;;
23228;SDS011;11783;50.350;6.576;2024-03-02T11:39:42;2.22;;;0.70;;
23228;SDS011;11783;50.350;6.576;2024-03-02T11:42:09;2.90;;;0.75;;
23228;SDS011;11783;50.350;6.576;2024-03-02T11:44:36;2.25;;;0.95;;
23228;SDS011;11783;50.350;6.576;2024-03-02T11:47:05;3.03;;;0.80;;
23228;SDS011;11783;50.350;6.576;2024-03-02T11:52:04;2.35;;;0.80;;
23228;SDS011;11783;50.350;6.576;2024-03-02T11:54:30;4.60;;;0.82;;
23228;SDS011;11783;50.350;6.576;2024-03-02T11:56:59;3.20;;;0.70;;
23228;SDS011;11783;50.350;6.576;2024-03-02T11:59:27;3.15;;;0.80;;
23228;SDS011;11783;50.350;6.576;2024-03-02T12:01:54;2.65;;;0.70;;
23228;SDS011;11783;50.350;6.576;2024-03-02T12:04:19;3.05;;;0.80;;
23228;SDS011;11783;50.350;6.576;2024-03-02T12:06:47;3.03;;;0.80;;
23228;SDS011;11783;50.350;6.576;2024-03-02T12:09:19;3.50;;;0.80;;
23228;SDS011;11783;50.350;6.576;2024-03-02T12:11:45;2.90;;;0.63;;
23228;SDS011;11783;50.350;6.576;2024-03-02T12:14:11;3.63;;;1.00;;
23228;SDS011;11783;50.350;6.576;2024-03-02T12:16:43;2.42;;;0.60;;
23228;SDS011;11783;50.350;6.576;2024-03-02T12:19:09;2.45;;;0.70;;
23228;SDS011;11783;50.350;6.576;2024-03-02T12:21:34;1.50;;;0.70;;
23228;SDS011;11783;50.350;6.576;2024-03-02T12:24:00;3.53;;;1.00;;
23228;SDS011;11783;50.350;6.576;2024-03-02T12:26:26;3.50;;;0.80;;
23228;SDS011;11783;50.350;6.576;2024-03-02T12:28:52;1.80;;;0.73;;
23228;SDS011;11783;50.350;6.576;2024-03-02T12:31:17;1.92;;;0.80;;
23228;SDS011;11783;50.350;6.576;2024-03-02T12:33:43;2.08;;;0.80;;
23228;SDS011;11783;50.350;6.576;2024-03-02T12:36:12;1.85;;;0.70;;
23228;SDS011;11783;50.350;6.576;2024-03-02T12:38:43;2.85;;;0.70;;
23228;SDS011;11783;50.350;6.576;2024-03-02T12:41:08;1.53;;;0.70;;
23228;SDS011;11783;50.350;6.576;2024-03-02T12:43:34;3.20;;;0.90;;
23228;SDS011;11783;50.350;6.576;2024-03-02T12:45:59;3.60;;;1.08;;
23228;SDS011;11783;50.350;6.576;2024-03-02T12:48:25;3.85;;;0.85;;
23228;SDS011;11783;50.350;6.576;2024-03-02T12:50:50;2.33;;;0.90;;
23228;SDS011;11783;50.350;6.576;2024-03-02T12:53:16;3.20;;;1.00;;
23228;SDS011;11783;50.350;6.576;2024-03-02T12:55:42;2.60;;;0.90;;
23228;SDS011;11783;50.350;6.576;2024-03-02T12:58:16;3.75;;;1.00;;
23228;SDS011;11783;50.350;6.576;2024-03-02T13:00:42;3.15;;;0.98;;
23228;SDS011;11783;50.350;6.576;2024-03-02T13:03:07;4.40;;;1.20;;
23228;SDS011;11783;50.350;6.576;2024-03-02T13:05:33;2.45;;;1.05;;
23228;SDS011;11783;50.350;6.576;2024-03-02T13:07:58;2.30;;;1.13;;
23228;SDS011;11783;50.350;6.576;2024-03-02T13:10:24;4.75;;;1.15;;
23228;SDS011;11783;50.350;6.576;2024-03-02T13:12:50;2.40;;;0.90;;
23228;SDS011;11783;50.350;6.576;2024-03-02T13:15:15;4.70;;;0.90;;
23228;SDS011;11783;50.350;6.576;2024-03-02T13:17:41;1.98;;;0.95;;
23228;SDS011;11783;50.350;6.576;2024-03-02T13:20:06;3.45;;;1.00;;
23228;SDS011;11783;50.350;6.576;2024-03-02T13:22:35;2.22;;;1.00;;
23228;SDS011;11783;50.350;6.576;2024-03-02T13:25:01;2.30;;;0.85;;
23228;SDS011;11783;50.350;6.576;2024-03-02T13:27:28;2.42;;;1.00;;
23228;SDS011;11783;50.350;6.576;2024-03-02T13:29:55;3.17;;;1.23;;
23228;SDS011;11783;50.350;6.576;2024-03-02T13:32:20;3.08;;;1.30;;
23228;SDS011;11783;50.350;6.576;2024-03-02T13:34:48;2.78;;;1.20;;
23228;SDS011;11783;50.350;6.576;2024-03-02T13:37:14;2.97;;;1.10;;
23228;SDS011;11783;50.350;6.576;2024-03-02T13:39:39;2.90;;;1.10;;
23228;SDS011;11783;50.350;6.576;2024-03-02T13:42:09;1.77;;;0.80;;
23228;SDS011;11783;50.350;6.576;2024-03-02T13:44:35;2.85;;;0.88;;
23228;SDS011;11783;50.350;6.576;2024-03-02T13:47:02;2.65;;;0.93;;
23228;SDS011;11783;50.350;6.576;2024-03-02T13:49:28;4.43;;;1.00;;
23228;SDS011;11783;50.350;6.576;2024-03-02T13:52:07;2.00;;;0.80;;
23228;SDS011;11783;50.350;6.576;2024-03-02T13:54:39;2.88;;;0.80;;
23228;SDS011;11783;50.350;6.576;2024-03-02T13:57:07;2.53;;;0.98;;
23228;SDS011;11783;50.350;6.576;2024-03-02T13:59:33;2.50;;;0.98;;
23228;SDS011;11783;50.350;6.576;2024-03-02T14:01:59;2.53;;;0.90;;
23228;SDS011;11783;50.350;6.576;2024-03-02T14:04:25;2.65;;;1.05;;
23228;SDS011;11783;50.350;6.576;2024-03-02T14:06:50;2.13;;;1.00;;
23228;SDS011;11783;50.350;6.576;2024-03-02T14:09:16;2.97;;;1.27;;
23228;SDS011;11783;50.350;6.576;2024-03-02T14:11:42;3.40;;;1.38;;
23228;SDS011;11783;50.350;6.576;2024-03-02T14:14:07;2.83;;;1.00;;
23228;SDS011;11783;50.350;6.576;2024-03-02T14:16:32;2.78;;;1.00;;
23228;SDS011;11783;50.350;6.576;2024-03-02T14:18:58;2.50;;;0.90;;
23228;SDS011;11783;50.350;6.576;2024-03-02T14:21:24;4.13;;;1.00;;
23228;SDS011;11783;50.350;6.576;2024-03-02T14:23:50;4.53;;;1.15;;
23228;SDS011;11783;50.350;6.576;2024-03-02T14:26:16;4.28;;;1.20;;
23228;SDS011;11783;50.350;6.576;2024-03-02T14:28:43;2.42;;;0.90;;
23228;SDS011;11783;50.350;6.576;2024-03-02T14:31:08;2.35;;;1.00;;
23228;SDS011;11783;50.350;6.576;2024-03-02T14:33:34;2.20;;;0.88;;
23228;SDS011;11783;50.350;6.576;2024-03-02T14:35:59;2.15;;;0.95;;
23228;SDS011;11783;50.350;6.576;2024-03-02T14:38:25;2.08;;;0.80;;
23228;SDS011;11783;50.350;6.576;2024-03-02T14:40:50;2.17;;;1.00;;
23228;SDS011;11783;50.350;6.576;2024-03-02T14:43:15;3.10;;;0.93;;
23228;SDS011;11783;50.350;6.576;2024-03-02T14:45:41;2.58;;;0.80;;
23228;SDS011;11783;50.350;6.576;2024-03-02T14:48:06;2.20;;;0.85;;
23228;SDS011;11783;50.350;6.576;2024-03-02T14:50:33;5.00;;;1.02;;
23228;SDS011;11783;50.350;6.576;2024-03-02T14:52:58;2.35;;;0.80;;
23228;SDS011;11783;50.350;6.576;2024-03-02T14:55:25;1.88;;;0.60;;
23228;SDS011;11783;50.350;6.576;2024-03-02T14:57:50;2.88;;;0.80;;
23228;SDS011;11783;50.350;6.576;2024-03-02T15:00:16;1.70;;;0.70;;
23228;SDS011;11783;50.350;6.576;2024-03-02T15:02:41;2.60;;;0.90;;
23228;SDS011;11783;50.350;6.576;2024-03-02T15:05:08;3.17;;;0.77;;